sensor_id;sensor_type;location;lat;lon;timestamp;pressure;altitude;pressure_sealevel;temperature;humidity
32875;BME280;40468;42.128;24.750;2023-03-15T00:00:08;98858.50;;;6.71;46.19
32875;BME280;40468;42.128;24.750;2023-03-15T00:01:41;98861.75;;;6.76;46.22
32875;BME280;40468;42.128;24.750;2023-03-15T00:03:16;98855.22;;;6.68;46.35
32875;BME280;40468;42.128;24.750;2023-03-15T00:04:47;98864.41;;;6.75;46.39
32875;BME280;40468;42.128;24.750;2023-03-15T00:06:18;98859.28;;;6.73;46.53
32875;BME280;40468;42.128;24.750;2023-03-15T00:07:50;98862.72;;;6.74;46.57
32875;BME280;40468;42.128;24.750;2023-03-15T00:09:23;98865.31;;;6.74;46.71
32875;BME280;40468;42.128;24.750;2023-03-15T00:10:55;98865.31;;;6.74;46.72
32875;BME280;40468;42.128;24.750;2023-03-15T00:12:28;98854.47;;;6.66;47.16
32875;BME280;40468;42.128;24.750;2023-03-15T00:14:01;98856.94;;;6.69;47.16
32875;BME280;40468;42.128;24.750;2023-03-15T00:15:33;98694.31;;;5.63;47.28
32875;BME280;40468;42.128;24.750;2023-03-15T00:17:04;98857.94;;;6.65;47.34
32875;BME280;40468;42.128;24.750;2023-03-15T00:18:36;98846.13;;;6.59;47.23
32875;BME280;40468;42.128;24.750;2023-03-15T00:20:08;98835.91;;;6.56;47.26
32875;BME280;40468;42.128;24.750;2023-03-15T00:21:40;98858.03;;;6.63;47.51
32875;BME280;40468;42.128;24.750;2023-03-15T00:23:13;98841.09;;;6.56;47.65
32875;BME280;40468;42.128;24.750;2023-03-15T00:24:44;98846.06;;;6.60;47.77
32875;BME280;40468;42.128;24.750;2023-03-15T00:26:17;98766.69;;;6.03;47.73
32875;BME280;40468;42.128;24.750;2023-03-15T00:27:50;98856.41;;;6.60;47.92
32875;BME280;40468;42.128;24.750;2023-03-15T00:29:22;98678.50;;;5.51;48.31
32875;BME280;40468;42.128;24.750;2023-03-15T00:31:04;98843.94;;;6.50;48.42
32875;BME280;40468;42.128;24.750;2023-03-15T00:32:36;98824.84;;;6.33;48.70
32875;BME280;40468;42.128;24.750;2023-03-15T00:34:07;98842.69;;;6.40;49.10
32875;BME280;40468;42.128;24.750;2023-03-15T00:35:40;98810.06;;;6.17;49.42
32875;BME280;40468;42.128;24.750;2023-03-15T00:37:12;98845.44;;;6.35;49.30
32875;BME280;40468;42.128;24.750;2023-03-15T00:38:43;98839.41;;;6.36;49.33
32875;BME280;40468;42.128;24.750;2023-03-15T00:40:15;98844.63;;;6.34;49.38
32875;BME280;40468;42.128;24.750;2023-03-15T00:41:47;98827.63;;;6.29;49.33
32875;BME280;40468;42.128;24.750;2023-03-15T00:43:21;98830.06;;;6.32;49.74
32875;BME280;40468;42.128;24.750;2023-03-15T00:44:53;98832.00;;;6.27;49.87
32875;BME280;40468;42.128;24.750;2023-03-15T00:46:25;98821.19;;;6.19;49.84
32875;BME280;40468;42.128;24.750;2023-03-15T00:47:58;98827.06;;;6.22;50.01
32875;BME280;40468;42.128;24.750;2023-03-15T00:49:31;98822.00;;;6.19;49.96
32875;BME280;40468;42.128;24.750;2023-03-15T00:51:04;98814.25;;;6.19;49.93
32875;BME280;40468;42.128;24.750;2023-03-15T00:52:37;98816.06;;;6.17;49.82
32875;BME280;40468;42.128;24.750;2023-03-15T00:54:09;98822.53;;;6.27;49.69
32875;BME280;40468;42.128;24.750;2023-03-15T00:55:43;98820.81;;;6.26;49.67
32875;BME280;40468;42.128;24.750;2023-03-15T00:57:14;98825.94;;;6.28;49.82
32875;BME280;40468;42.128;24.750;2023-03-15T00:58:48;98723.38;;;5.68;49.94
32875;BME280;40468;42.128;24.750;2023-03-15T01:00:22;98820.78;;;6.28;49.90
32875;BME280;40468;42.128;24.750;2023-03-15T01:01:54;98805.44;;;6.23;49.97
32875;BME280;40468;42.128;24.750;2023-03-15T01:03:25;98817.22;;;6.30;49.92
32875;BME280;40468;42.128;24.750;2023-03-15T01:04:58;98811.97;;;6.32;49.76
32875;BME280;40468;42.128;24.750;2023-03-15T01:06:29;98802.81;;;6.25;49.85
32875;BME280;40468;42.128;24.750;2023-03-15T01:08:01;98808.56;;;6.31;49.84
32875;BME280;40468;42.128;24.750;2023-03-15T01:09:33;98808.59;;;6.30;49.86
32875;BME280;40468;42.128;24.750;2023-03-15T01:11:07;98802.69;;;6.28;50.05
32875;BME280;40468;42.128;24.750;2023-03-15T01:12:39;98791.00;;;6.19;50.12
32875;BME280;40468;42.128;24.750;2023-03-15T01:14:12;98786.72;;;6.18;50.09
32875;BME280;40468;42.128;24.750;2023-03-15T01:15:45;98684.53;;;5.50;50.10
32875;BME280;40468;42.128;24.750;2023-03-15T01:17:16;98794.47;;;6.18;50.19
32875;BME280;40468;42.128;24.750;2023-03-15T01:18:48;98800.28;;;6.23;50.21
32875;BME280;40468;42.128;24.750;2023-03-15T01:20:21;98731.59;;;5.77;50.19
32875;BME280;40468;42.128;24.750;2023-03-15T01:21:53;98805.44;;;6.23;50.39
32875;BME280;40468;42.128;24.750;2023-03-15T01:23:24;98791.13;;;6.16;50.26
32875;BME280;40468;42.128;24.750;2023-03-15T01:24:56;98779.34;;;6.09;50.29
32875;BME280;40468;42.128;24.750;2023-03-15T01:26:27;98792.88;;;6.15;50.30
32875;BME280;40468;42.128;24.750;2023-03-15T01:27:59;98794.69;;;6.13;50.35
32875;BME280;40468;42.128;24.750;2023-03-15T01:29:32;98776.28;;;6.01;50.57
32875;BME280;40468;42.128;24.750;2023-03-15T01:31:05;98797.91;;;6.19;50.61
32875;BME280;40468;42.128;24.750;2023-03-15T01:32:37;98798.78;;;6.18;50.67
32875;BME280;40468;42.128;24.750;2023-03-15T01:34:09;98774.44;;;6.03;51.02
32875;BME280;40468;42.128;24.750;2023-03-15T01:35:40;98792.00;;;6.15;51.05
32875;BME280;40468;42.128;24.750;2023-03-15T01:37:12;98787.72;;;6.15;51.11
32875;BME280;40468;42.128;24.750;2023-03-15T01:38:44;98781.75;;;6.13;51.30
32875;BME280;40468;42.128;24.750;2023-03-15T01:40:16;98780.09;;;6.12;51.47
32875;BME280;40468;42.128;24.750;2023-03-15T01:41:48;98787.06;;;6.10;51.47
32875;BME280;40468;42.128;24.750;2023-03-15T01:43:22;98766.66;;;6.04;51.53
32875;BME280;40468;42.128;24.750;2023-03-15T01:44:55;98789.00;;;6.05;51.35
32875;BME280;40468;42.128;24.750;2023-03-15T01:46:29;98771.28;;;5.96;51.48
32875;BME280;40468;42.128;24.750;2023-03-15T01:48:04;98779.56;;;6.04;51.61
32875;BME280;40468;42.128;24.750;2023-03-15T01:49:35;98774.72;;;5.97;51.72
32875;BME280;40468;42.128;24.750;2023-03-15T01:51:10;98786.50;;;6.04;52.03
32875;BME280;40468;42.128;24.750;2023-03-15T01:52:44;98779.97;;;5.95;51.98
32875;BME280;40468;42.128;24.750;2023-03-15T01:54:18;98783.97;;;6.02;52.19
32875;BME280;40468;42.128;24.750;2023-03-15T01:55:53;98783.16;;;6.00;52.15
32875;BME280;40468;42.128;24.750;2023-03-15T01:57:26;98789.25;;;5.99;52.23
32875;BME280;40468;42.128;24.750;2023-03-15T01:59:01;98779.28;;;5.90;52.39
32875;BME280;40468;42.128;24.750;2023-03-15T02:00:36;98786.25;;;5.88;52.36
32875;BME280;40468;42.128;24.750;2023-03-15T02:02:09;98771.78;;;5.84;52.59
32875;BME280;40468;42.128;24.750;2023-03-15T02:03:45;98787.72;;;5.95;52.69
32875;BME280;40468;42.128;24.750;2023-03-15T02:05:20;98757.44;;;5.77;52.64
32875;BME280;40468;42.128;24.750;2023-03-15T02:06:56;98772.72;;;5.83;52.86
32875;BME280;40468;42.128;24.750;2023-03-15T02:08:32;98784.72;;;5.84;52.96
32875;BME280;40468;42.128;24.750;2023-03-15T02:10:09;98781.91;;;5.88;53.02
32875;BME280;40468;42.128;24.750;2023-03-15T02:11:42;98788.91;;;5.86;53.04
32875;BME280;40468;42.128;24.750;2023-03-15T02:13:16;98763.53;;;5.76;53.09
32875;BME280;40468;42.128;24.750;2023-03-15T02:14:50;98775.16;;;5.86;52.98
32875;BME280;40468;42.128;24.750;2023-03-15T02:16:24;98772.94;;;5.77;52.98
32875;BME280;40468;42.128;24.750;2023-03-15T02:17:56;98784.06;;;5.79;53.06
32875;BME280;40468;42.128;24.750;2023-03-15T02:19:38;98775.53;;;5.77;53.30
32875;BME280;40468;42.128;24.750;2023-03-15T02:21:26;98779.97;;;5.73;53.05
32875;BME280;40468;42.128;24.750;2023-03-15T02:23:01;98758.03;;;5.63;53.09
32875;BME280;40468;42.128;24.750;2023-03-15T02:24:39;98768.28;;;5.64;53.21
32875;BME280;40468;42.128;24.750;2023-03-15T02:26:20;98746.59;;;5.48;53.24
32875;BME280;40468;42.128;24.750;2023-03-15T02:27:57;98747.56;;;5.45;53.24
32875;BME280;40468;42.128;24.750;2023-03-15T02:29:29;98769.50;;;5.56;53.24
32875;BME280;40468;42.128;24.750;2023-03-15T02:31:02;98772.16;;;5.54;53.30
32875;BME280;40468;42.128;24.750;2023-03-15T02:32:34;98767.91;;;5.53;53.33
32875;BME280;40468;42.128;24.750;2023-03-15T02:34:07;98757.09;;;5.43;53.42
32875;BME280;40468;42.128;24.750;2023-03-15T02:35:39;98756.25;;;5.43;53.44
32875;BME280;40468;42.128;24.750;2023-03-15T02:37:10;98762.09;;;5.48;53.53
32875;BME280;40468;42.128;24.750;2023-03-15T02:38:42;98725.34;;;5.21;53.40
32875;BME280;40468;42.128;24.750;2023-03-15T02:40:18;98763.88;;;5.46;53.34
32875;BME280;40468;42.128;24.750;2023-03-15T02:41:52;98607.28;;;4.41;53.21
32875;BME280;40468;42.128;24.750;2023-03-15T02:43:29;98768.25;;;5.44;53.35
32875;BME280;40468;42.128;24.750;2023-03-15T02:45:01;98755.72;;;5.35;53.38
32875;BME280;40468;42.128;24.750;2023-03-15T02:46:34;98698.00;;;4.95;53.29
32875;BME280;40468;42.128;24.750;2023-03-15T02:48:06;98771.06;;;5.39;53.36
32875;BME280;40468;42.128;24.750;2023-03-15T02:49:43;98767.63;;;5.39;53.40
32875;BME280;40468;42.128;24.750;2023-03-15T02:51:18;98744.00;;;5.28;53.33
32875;BME280;40468;42.128;24.750;2023-03-15T02:52:51;98746.56;;;5.28;53.32
32875;BME280;40468;42.128;24.750;2023-03-15T02:54:23;98749.16;;;5.28;53.36
32875;BME280;40468;42.128;24.750;2023-03-15T02:55:54;98758.38;;;5.33;53.37
32875;BME280;40468;42.128;24.750;2023-03-15T02:57:26;98754.19;;;5.31;53.29
32875;BME280;40468;42.128;24.750;2023-03-15T02:58:58;98748.25;;;5.29;53.15
32875;BME280;40468;42.128;24.750;2023-03-15T03:00:30;98748.44;;;5.24;53.14
32875;BME280;40468;42.128;24.750;2023-03-15T03:02:02;98745.97;;;5.21;53.24
32875;BME280;40468;42.128;24.750;2023-03-15T03:03:33;98754.56;;;5.21;53.24
32875;BME280;40468;42.128;24.750;2023-03-15T03:05:05;98758.03;;;5.20;53.35
32875;BME280;40468;42.128;24.750;2023-03-15T03:06:37;98756.44;;;5.18;53.35
32875;BME280;40468;42.128;24.750;2023-03-15T03:08:13;98761.63;;;5.16;53.47
32875;BME280;40468;42.128;24.750;2023-03-15T03:09:45;98750.53;;;5.14;53.60
32875;BME280;40468;42.128;24.750;2023-03-15T03:11:16;98745.63;;;5.08;53.49
32875;BME280;40468;42.128;24.750;2023-03-15T03:12:48;98711.06;;;4.90;53.77
32875;BME280;40468;42.128;24.750;2023-03-15T03:14:24;98748.94;;;5.12;53.70
32875;BME280;40468;42.128;24.750;2023-03-15T03:15:55;98754.97;;;5.11;53.83
32875;BME280;40468;42.128;24.750;2023-03-15T03:17:29;98743.28;;;5.02;53.76
32875;BME280;40468;42.128;24.750;2023-03-15T03:19:00;98740.81;;;4.99;53.97
32875;BME280;40468;42.128;24.750;2023-03-15T03:20:32;98750.13;;;5.03;54.02
32875;BME280;40468;42.128;24.750;2023-03-15T03:22:04;98738.34;;;4.96;54.14
32875;BME280;40468;42.128;24.750;2023-03-15T03:23:36;98740.06;;;4.97;54.19
32875;BME280;40468;42.128;24.750;2023-03-15T03:25:09;98688.69;;;4.69;54.35
32875;BME280;40468;42.128;24.750;2023-03-15T03:26:41;98725.94;;;4.84;54.43
32875;BME280;40468;42.128;24.750;2023-03-15T03:28:15;98720.13;;;4.78;54.64
32875;BME280;40468;42.128;24.750;2023-03-15T03:29:48;98735.44;;;4.83;54.87
32875;BME280;40468;42.128;24.750;2023-03-15T03:31:22;98729.91;;;4.70;55.03
32875;BME280;40468;42.128;24.750;2023-03-15T03:32:53;98741.78;;;4.74;55.25
32875;BME280;40468;42.128;24.750;2023-03-15T03:34:25;98739.31;;;4.71;55.47
32875;BME280;40468;42.128;24.750;2023-03-15T03:36:00;98566.44;;;3.63;55.71
32875;BME280;40468;42.128;24.750;2023-03-15T03:37:33;98739.44;;;4.68;55.93
32875;BME280;40468;42.128;24.750;2023-03-15T03:39:05;98735.16;;;4.67;55.98
32875;BME280;40468;42.128;24.750;2023-03-15T03:40:37;98739.47;;;4.67;56.27
32875;BME280;40468;42.128;24.750;2023-03-15T03:42:09;98590.06;;;3.74;56.28
32875;BME280;40468;42.128;24.750;2023-03-15T03:43:42;98720.47;;;4.47;56.14
32875;BME280;40468;42.128;24.750;2023-03-15T03:45:15;98733.50;;;4.66;56.47
32875;BME280;40468;42.128;24.750;2023-03-15T03:46:47;98734.50;;;4.62;56.17
32875;BME280;40468;42.128;24.750;2023-03-15T03:48:19;98730.22;;;4.61;56.36
32875;BME280;40468;42.128;24.750;2023-03-15T03:49:50;98715.25;;;4.49;56.99
32875;BME280;40468;42.128;24.750;2023-03-15T03:51:22;98713.69;;;4.45;57.23
32875;BME280;40468;42.128;24.750;2023-03-15T03:52:54;98724.44;;;4.56;57.31
32875;BME280;40468;42.128;24.750;2023-03-15T03:54:26;98718.38;;;4.57;57.42
32875;BME280;40468;42.128;24.750;2023-03-15T03:55:58;98722.63;;;4.58;57.52
32875;BME280;40468;42.128;24.750;2023-03-15T03:57:33;98741.53;;;4.59;57.42
32875;BME280;40468;42.128;24.750;2023-03-15T03:59:05;98741.47;;;4.60;57.65
32875;BME280;40468;42.128;24.750;2023-03-15T04:00:38;98737.34;;;4.56;57.64
32875;BME280;40468;42.128;24.750;2023-03-15T04:02:11;98746.56;;;4.62;57.88
32875;BME280;40468;42.128;24.750;2023-03-15T04:03:43;98748.28;;;4.61;57.92
32875;BME280;40468;42.128;24.750;2023-03-15T04:05:15;98744.81;;;4.62;58.04
32875;BME280;40468;42.128;24.750;2023-03-15T04:06:47;98732.28;;;4.53;57.90
32875;BME280;40468;42.128;24.750;2023-03-15T04:08:20;98749.28;;;4.59;57.96
32875;BME280;40468;42.128;24.750;2023-03-15T04:09:52;98738.97;;;4.59;58.24
32875;BME280;40468;42.128;24.750;2023-03-15T04:11:24;98662.63;;;4.09;58.35
32875;BME280;40468;42.128;24.750;2023-03-15T04:12:56;98702.88;;;4.35;58.28
32875;BME280;40468;42.128;24.750;2023-03-15T04:14:28;98736.50;;;4.55;58.41
32875;BME280;40468;42.128;24.750;2023-03-15T04:16:01;98730.47;;;4.55;58.53
32875;BME280;40468;42.128;24.750;2023-03-15T04:17:33;98739.28;;;4.49;58.25
32875;BME280;40468;42.128;24.750;2023-03-15T04:19:05;98738.50;;;4.47;58.46
32875;BME280;40468;42.128;24.750;2023-03-15T04:20:37;98739.34;;;4.48;58.62
32875;BME280;40468;42.128;24.750;2023-03-15T04:22:16;98735.94;;;4.47;58.88
32875;BME280;40468;42.128;24.750;2023-03-15T04:23:47;98712.16;;;4.39;59.03
32875;BME280;40468;42.128;24.750;2023-03-15T04:25:20;98713.69;;;4.45;59.41
32875;BME280;40468;42.128;24.750;2023-03-15T04:26:56;98697.78;;;4.33;59.59
32875;BME280;40468;42.128;24.750;2023-03-15T04:28:27;98685.13;;;4.27;59.74
32875;BME280;40468;42.128;24.750;2023-03-15T04:29:59;98699.56;;;4.31;59.92
32875;BME280;40468;42.128;24.750;2023-03-15T04:31:36;98695.44;;;4.27;59.89
32875;BME280;40468;42.128;24.750;2023-03-15T04:33:08;98703.66;;;4.37;59.93
32875;BME280;40468;42.128;24.750;2023-03-15T04:34:41;98707.13;;;4.36;59.92
32875;BME280;40468;42.128;24.750;2023-03-15T04:36:13;98709.75;;;4.34;59.97
32875;BME280;40468;42.128;24.750;2023-03-15T04:37:47;98711.50;;;4.34;60.09
32875;BME280;40468;42.128;24.750;2023-03-15T04:39:21;98705.13;;;4.21;60.38
32875;BME280;40468;42.128;24.750;2023-03-15T04:40:53;98700.94;;;4.18;60.38
32875;BME280;40468;42.128;24.750;2023-03-15T04:42:25;98722.81;;;4.30;60.79
32875;BME280;40468;42.128;24.750;2023-03-15T04:43:57;98722.09;;;4.26;61.06
32875;BME280;40468;42.128;24.750;2023-03-15T04:45:29;98722.16;;;4.25;61.62
32875;BME280;40468;42.128;24.750;2023-03-15T04:47:03;98723.94;;;4.23;61.68
32875;BME280;40468;42.128;24.750;2023-03-15T04:48:35;98736.16;;;4.18;61.22
32875;BME280;40468;42.128;24.750;2023-03-15T04:50:07;98730.19;;;4.17;61.53
32875;BME280;40468;42.128;24.750;2023-03-15T04:51:39;98721.69;;;4.14;62.09
32875;BME280;40468;42.128;24.750;2023-03-15T04:53:11;98724.22;;;4.15;62.25
32875;BME280;40468;42.128;24.750;2023-03-15T04:54:42;98708.19;;;4.07;62.32
32875;BME280;40468;42.128;24.750;2023-03-15T04:56:14;98725.97;;;4.15;62.25
32875;BME280;40468;42.128;24.750;2023-03-15T04:57:45;98727.63;;;4.16;62.11
32875;BME280;40468;42.128;24.750;2023-03-15T04:59:17;98728.47;;;4.16;62.52
32875;BME280;40468;42.128;24.750;2023-03-15T05:00:51;98732.91;;;4.13;62.72
32875;BME280;40468;42.128;24.750;2023-03-15T05:02:25;98733.84;;;4.10;62.81
32875;BME280;40468;42.128;24.750;2023-03-15T05:03:57;98732.34;;;4.04;62.36
32875;BME280;40468;42.128;24.750;2023-03-15T05:05:31;98733.16;;;4.05;62.56
32875;BME280;40468;42.128;24.750;2023-03-15T05:07:03;98727.13;;;4.06;62.64
32875;BME280;40468;42.128;24.750;2023-03-15T05:08:35;98721.19;;;4.04;63.06
32875;BME280;40468;42.128;24.750;2023-03-15T05:10:08;98718.88;;;3.96;63.01
32875;BME280;40468;42.128;24.750;2023-03-15T05:11:41;98728.00;;;4.05;62.98
32875;BME280;40468;42.128;24.750;2023-03-15T05:13:13;98713.69;;;3.98;63.15
32875;BME280;40468;42.128;24.750;2023-03-15T05:14:45;98729.81;;;4.03;63.55
32875;BME280;40468;42.128;24.750;2023-03-15T05:16:16;98734.97;;;4.03;63.43
32875;BME280;40468;42.128;24.750;2023-03-15T05:17:49;98712.34;;;3.87;63.42
32875;BME280;40468;42.128;24.750;2023-03-15T05:19:24;98735.13;;;3.98;63.52
32875;BME280;40468;42.128;24.750;2023-03-15T05:20:56;98730.88;;;3.97;63.51
32875;BME280;40468;42.128;24.750;2023-03-15T05:22:28;98740.03;;;4.06;63.53
32875;BME280;40468;42.128;24.750;2023-03-15T05:24:00;98743.47;;;4.05;63.56
32875;BME280;40468;42.128;24.750;2023-03-15T05:25:33;98746.94;;;4.04;63.58
32875;BME280;40468;42.128;24.750;2023-03-15T05:27:05;98747.88;;;4.03;63.73
32875;BME280;40468;42.128;24.750;2023-03-15T05:28:37;98745.31;;;4.01;64.03
32875;BME280;40468;42.128;24.750;2023-03-15T05:30:10;98744.53;;;3.99;64.10
32875;BME280;40468;42.128;24.750;2023-03-15T05:31:43;98736.19;;;3.93;64.19
32875;BME280;40468;42.128;24.750;2023-03-15T05:33:17;98741.13;;;3.99;64.36
32875;BME280;40468;42.128;24.750;2023-03-15T05:34:48;98736.06;;;3.96;64.48
32875;BME280;40468;42.128;24.750;2023-03-15T05:36:20;98739.66;;;3.92;64.56
32875;BME280;40468;42.128;24.750;2023-03-15T05:37:54;98725.31;;;3.84;64.54
32875;BME280;40468;42.128;24.750;2023-03-15T05:39:25;98709.34;;;3.75;64.37
32875;BME280;40468;42.128;24.750;2023-03-15T05:40:57;98732.66;;;3.95;64.43
32875;BME280;40468;42.128;24.750;2023-03-15T05:42:31;98736.91;;;3.96;64.32
32875;BME280;40468;42.128;24.750;2023-03-15T05:44:02;98709.78;;;3.87;64.06
32875;BME280;40468;42.128;24.750;2023-03-15T05:45:34;98629.19;;;3.35;64.22
32875;BME280;40468;42.128;24.750;2023-03-15T05:47:07;98727.19;;;4.04;64.03
32875;BME280;40468;42.128;24.750;2023-03-15T05:48:40;98727.97;;;4.06;64.01
32875;BME280;40468;42.128;24.750;2023-03-15T05:50:12;98720.13;;;4.09;63.96
32875;BME280;40468;42.128;24.750;2023-03-15T05:51:44;98696.56;;;3.97;63.92
32875;BME280;40468;42.128;24.750;2023-03-15T05:53:16;98728.53;;;4.15;63.71
32875;BME280;40468;42.128;24.750;2023-03-15T05:54:48;98713.25;;;4.10;63.67
32875;BME280;40468;42.128;24.750;2023-03-15T05:56:20;98728.38;;;4.19;63.69
32875;BME280;40468;42.128;24.750;2023-03-15T05:57:51;98696.25;;;4.04;63.73
32875;BME280;40468;42.128;24.750;2023-03-15T05:59:23;98717.94;;;4.22;63.63
32875;BME280;40468;42.128;24.750;2023-03-15T06:00:54;98719.69;;;4.22;63.77
32875;BME280;40468;42.128;24.750;2023-03-15T06:02:26;98713.97;;;4.14;63.91
32875;BME280;40468;42.128;24.750;2023-03-15T06:03:59;98631.69;;;3.62;63.93
32875;BME280;40468;42.128;24.750;2023-03-15T06:05:30;98719.91;;;4.16;63.94
32875;BME280;40468;42.128;24.750;2023-03-15T06:07:03;98730.09;;;4.19;64.40
32875;BME280;40468;42.128;24.750;2023-03-15T06:08:35;98730.91;;;4.21;64.49
32875;BME280;40468;42.128;24.750;2023-03-15T06:10:07;98732.53;;;4.23;64.63
32875;BME280;40468;42.128;24.750;2023-03-15T06:11:40;98735.81;;;4.27;64.25
32875;BME280;40468;42.128;24.750;2023-03-15T06:13:12;98742.50;;;4.32;64.68
32875;BME280;40468;42.128;24.750;2023-03-15T06:14:44;98733.63;;;4.40;64.55
32875;BME280;40468;42.128;24.750;2023-03-15T06:16:15;98694.53;;;4.28;64.39
32875;BME280;40468;42.128;24.750;2023-03-15T06:17:47;98730.22;;;4.61;64.30
32875;BME280;40468;42.128;24.750;2023-03-15T06:19:21;98626.66;;;4.06;64.07
32875;BME280;40468;42.128;24.750;2023-03-15T06:20:53;98707.78;;;4.65;64.09
32875;BME280;40468;42.128;24.750;2023-03-15T06:22:25;98689.72;;;4.65;63.86
32875;BME280;40468;42.128;24.750;2023-03-15T06:23:57;98656.59;;;4.54;63.62
32875;BME280;40468;42.128;24.750;2023-03-15T06:25:29;98726.66;;;5.09;63.51
32875;BME280;40468;42.128;24.750;2023-03-15T06:27:01;98729.00;;;5.15;63.23
32875;BME280;40468;42.128;24.750;2023-03-15T06:28:33;98730.50;;;5.21;63.24
32875;BME280;40468;42.128;24.750;2023-03-15T06:30:06;98717.34;;;5.27;63.02
32875;BME280;40468;42.128;24.750;2023-03-15T06:31:39;98701.97;;;5.24;62.86
32875;BME280;40468;42.128;24.750;2023-03-15T06:33:11;98689.78;;;5.28;62.70
32875;BME280;40468;42.128;24.750;2023-03-15T06:34:44;98719.03;;;5.48;62.55
32875;BME280;40468;42.128;24.750;2023-03-15T06:36:16;98721.34;;;5.55;62.59
32875;BME280;40468;42.128;24.750;2023-03-15T06:37:48;98717.81;;;5.57;62.20
32875;BME280;40468;42.128;24.750;2023-03-15T06:39:22;98719.34;;;5.61;62.11
32875;BME280;40468;42.128;24.750;2023-03-15T06:40:54;98722.31;;;5.73;62.05
32875;BME280;40468;42.128;24.750;2023-03-15T06:42:27;98725.03;;;5.90;61.90
32875;BME280;40468;42.128;24.750;2023-03-15T06:43:59;98728.81;;;6.22;61.94
32875;BME280;40468;42.128;24.750;2023-03-15T06:45:31;98724.91;;;6.51;61.05
32875;BME280;40468;42.128;24.750;2023-03-15T06:47:03;98733.28;;;6.75;60.33
32875;BME280;40468;42.128;24.750;2023-03-15T06:48:36;98712.97;;;6.85;59.76
32875;BME280;40468;42.128;24.750;2023-03-15T06:50:11;98722.16;;;7.10;59.09
32875;BME280;40468;42.128;24.750;2023-03-15T06:51:42;98726.78;;;7.22;58.64
32875;BME280;40468;42.128;24.750;2023-03-15T06:53:15;98733.16;;;7.32;58.16
32875;BME280;40468;42.128;24.750;2023-03-15T06:54:47;98739.81;;;7.55;57.96
32875;BME280;40468;42.128;24.750;2023-03-15T06:56:19;98734.88;;;7.84;57.45
32875;BME280;40468;42.128;24.750;2023-03-15T06:57:51;98727.22;;;8.15;56.69
32875;BME280;40468;42.128;24.750;2023-03-15T06:59:23;98730.44;;;8.36;55.74
32875;BME280;40468;42.128;24.750;2023-03-15T07:00:55;98703.44;;;8.72;55.14
32875;BME280;40468;42.128;24.750;2023-03-15T07:02:27;98719.72;;;9.22;54.17
32875;BME280;40468;42.128;24.750;2023-03-15T07:04:03;98718.28;;;9.62;53.36
32875;BME280;40468;42.128;24.750;2023-03-15T07:05:36;98717.59;;;10.03;52.34
32875;BME280;40468;42.128;24.750;2023-03-15T07:07:08;98715.19;;;10.29;51.13
32875;BME280;40468;42.128;24.750;2023-03-15T07:08:40;98717.50;;;10.33;50.92
32875;BME280;40468;42.128;24.750;2023-03-15T07:10:12;98713.78;;;10.37;50.33
32875;BME280;40468;42.128;24.750;2023-03-15T07:11:44;98711.47;;;10.33;50.04
32875;BME280;40468;42.128;24.750;2023-03-15T07:13:17;98680.22;;;10.04;49.83
32875;BME280;40468;42.128;24.750;2023-03-15T07:14:49;98712.72;;;10.11;49.77
32875;BME280;40468;42.128;24.750;2023-03-15T07:16:21;98717.38;;;9.92;49.59
32875;BME280;40468;42.128;24.750;2023-03-15T07:17:53;98714.75;;;9.77;50.07
32875;BME280;40468;42.128;24.750;2023-03-15T07:19:25;98710.88;;;9.70;50.28
32875;BME280;40468;42.128;24.750;2023-03-15T07:21:01;98713.75;;;9.80;50.15
32875;BME280;40468;42.128;24.750;2023-03-15T07:22:33;98713.84;;;9.93;50.15
32875;BME280;40468;42.128;24.750;2023-03-15T07:24:05;98709.97;;;10.29;50.24
32875;BME280;40468;42.128;24.750;2023-03-15T07:25:37;98717.34;;;10.78;49.61
32875;BME280;40468;42.128;24.750;2023-03-15T07:27:11;98700.16;;;11.15;48.59
32875;BME280;40468;42.128;24.750;2023-03-15T07:28:43;98651.41;;;11.17;47.96
32875;BME280;40468;42.128;24.750;2023-03-15T07:30:16;98698.00;;;11.74;47.52
32875;BME280;40468;42.128;24.750;2023-03-15T07:31:48;98703.44;;;11.97;46.84
32875;BME280;40468;42.128;24.750;2023-03-15T07:33:20;98671.38;;;11.82;45.65
32875;BME280;40468;42.128;24.750;2023-03-15T07:34:52;98694.44;;;11.75;45.41
32875;BME280;40468;42.128;24.750;2023-03-15T07:36:29;98689.03;;;11.66;46.07
32875;BME280;40468;42.128;24.750;2023-03-15T07:38:01;98693.09;;;11.57;46.05
32875;BME280;40468;42.128;24.750;2023-03-15T07:39:33;98702.97;;;11.52;45.87
32875;BME280;40468;42.128;24.750;2023-03-15T07:41:06;98704.22;;;11.46;45.97
32875;BME280;40468;42.128;24.750;2023-03-15T07:42:38;98699.69;;;11.23;45.59
32875;BME280;40468;42.128;24.750;2023-03-15T07:44:10;98673.88;;;11.05;46.39
32875;BME280;40468;42.128;24.750;2023-03-15T07:45:42;98670.75;;;11.00;46.32
32875;BME280;40468;42.128;24.750;2023-03-15T07:47:14;98695.63;;;11.19;46.17
32875;BME280;40468;42.128;24.750;2023-03-15T07:48:46;98662.44;;;11.08;46.37
32875;BME280;40468;42.128;24.750;2023-03-15T07:50:18;98695.75;;;11.30;45.74
32875;BME280;40468;42.128;24.750;2023-03-15T07:51:51;98697.28;;;11.20;46.06
32875;BME280;40468;42.128;24.750;2023-03-15T07:53:23;98692.13;;;11.05;46.27
32875;BME280;40468;42.128;24.750;2023-03-15T07:54:55;98677.44;;;10.77;46.19
32875;BME280;40468;42.128;24.750;2023-03-15T07:56:28;98671.97;;;10.67;46.23
32875;BME280;40468;42.128;24.750;2023-03-15T07:58:00;98686.31;;;10.60;46.54
32875;BME280;40468;42.128;24.750;2023-03-15T07:59:32;98683.66;;;10.47;46.76
32875;BME280;40468;42.128;24.750;2023-03-15T08:01:04;98542.44;;;9.61;46.70
32875;BME280;40468;42.128;24.750;2023-03-15T08:02:36;98695.66;;;10.50;46.64
32875;BME280;40468;42.128;24.750;2023-03-15T08:04:08;98688.19;;;10.44;46.78
32875;BME280;40468;42.128;24.750;2023-03-15T08:05:40;98691.19;;;10.38;47.10
32875;BME280;40468;42.128;24.750;2023-03-15T08:07:14;98687.31;;;10.31;47.02
32875;BME280;40468;42.128;24.750;2023-03-15T08:08:45;98596.75;;;9.80;46.78
32875;BME280;40468;42.128;24.750;2023-03-15T08:10:18;98679.13;;;10.37;46.97